Terminal Aerodrome Forecast
Issued by NWS

Home | Current Version | Previous Version | Graphics & Text | Print | Product List | Glossary On
Versions: 1 2 3 4 5 6 7 8 9 10 11 12 13 14 15 16 17 18 19 20 21
527
FTUS42 KMHX 041833 AAA
TAFOAJ
TAF AMD
KOAJ 041833Z 0419/0518 17008KT 5SM -RA BKN007
     FM050600 33006G14KT 5SM -RA BR OVC004
     FM051100 32007G15KT 6SM BR OVC007
     FM051300 32010G18KT P6SM OVC015
      AMD LTD TO CLD VIS AND WIND=

USA.gov is the U.S. government's official web portal to all federal, state and local government web resources and services.